Sun Universe — 3FOQ4 — position and weather

sailwx.info

Track history (hours):
 
Tides and Currents Weather Stations Pressure Air Temp Water Temp Dewpoint Dewpoint Depression Visibility Wind Speed Wind Dir Waves Ship Positions

Sun Universe

Last reported at 2016-Apr-25 13:20 UTC. Time now 2016-May-05 18:02 UTC.
Position N 24°52' E 119°25'.
Warning: this ship's position is 10 days out of date.

Length 116 m; draft 5.3 m.

Type: Cargo ship. MMSI: 371647000.

Date/timePositionNaut miles runAvg speedWind from/ knotsBaromVisibWave heightAir tempDewpointWater temp
2016-Apr-25 13:20N 24°52' E 119°25'1113.8
2016-Apr-25 12:33N 24°45' E 119°16'1414.1
2016-Apr-25 11:33N 24°36' E 119°04'1413.7
2016-Apr-25 10:33N 24°27' E 118°53'1813.1
2016-Apr-25 09:09N 24°15' E 118°38'712.1
2016-Apr-25 08:33N 24°11' E 118°31'1411.7
2016-Apr-25 07:20N 24°00' E 118°20'2111.8
2016-Apr-25 05:32N 23°46' E 118°03'1312.8
2016-Apr-25 04:30N 23°37' E 117°53'20113.3
2016-Apr-24 13:27N 22°08' E 114°37'1213.7
2016-Apr-24 12:32N 22°08' E 114°24'1212.3
2016-Apr-24 11:33N 22°08' E 114°10'6 0.8
2016-Apr-24 04:13N 22°08' E 114°04'2 2.8
2016-Apr-24 03:30N 22°08' E 114°02'1010.7
2016-Apr-24 02:33N 22°06' E 113°51'9 8.9
2016-Apr-24 01:33N 22°14' E 113°48'2410.7
2016-Apr-23 23:18N 22°38' E 113°42'16 0.4
2016-Apr-22 08:31N 22°22' E 113°47'9 9.4
2016-Apr-22 07:33N 22°13' E 113°48'7 7.1
2016-Apr-22 06:31N 22°06' E 113°49'2 0.6
2016-Apr-22 02:33N 22°05' E 113°52'1 0.0
2016-Apr-21 14:26N 22°05' E 113°52'0 0.0
2016-Apr-21 12:26N 22°05' E 113°52'0 0.0
2016-Apr-21 11:26N 22°05' E 113°52'0 0.0
2016-Apr-21 09:20N 22°05' E 113°52'24110.4
2016-Apr-20 10:15N 23°38' E 117°53'2512.7
2016-Apr-20 08:19N 23°55' E 118°13'1113.1
2016-Apr-20 07:30N 24°02' E 118°22'2713.6
2016-Apr-20 05:30N 24°20' E 118°44'1313.6
2016-Apr-20 04:32N 24°29' E 118°55'1313.4
2016-Apr-20 03:33N 24°38' E 119°06'1313.3
2016-Apr-20 02:34N 24°46' E 119°17'  
2016-Apr-17 14:33N 33°41' E 129°53'1211.7
2016-Apr-17 13:33N 33°46' E 130°06'1111.1
2016-Apr-17 12:33N 33°52' E 130°17'  
Track history (hours):
 
Tides and Currents Weather Stations Pressure Air Temp Water Temp Dewpoint Dewpoint Depression Visibility Wind Speed Wind Dir Waves Ship Positions

Sun Universe

Last reported at 2016-Apr-25 13:20 UTC. Time now 2016-May-05 18:02 UTC.
Position N 24°52' E 119°25'.
Warning: this ship's position is 10 days out of date.

Length 116 m; draft 5.3 m.

Type: Cargo ship. MMSI: 371647000.

Date/timePositionNaut miles runAvg speedWind from/ knotsBaromVisibWave heightAir tempDewpointWater temp
2016-Apr-25 13:20N 24°52' E 119°25'1113.8
2016-Apr-25 12:33N 24°45' E 119°16'1414.1
2016-Apr-25 11:33N 24°36' E 119°04'1413.7
2016-Apr-25 10:33N 24°27' E 118°53'1813.1
2016-Apr-25 09:09N 24°15' E 118°38'712.1
2016-Apr-25 08:33N 24°11' E 118°31'1411.7
2016-Apr-25 07:20N 24°00' E 118°20'2111.8
2016-Apr-25 05:32N 23°46' E 118°03'1312.8
2016-Apr-25 04:30N 23°37' E 117°53'20113.3
2016-Apr-24 13:27N 22°08' E 114°37'1213.7
2016-Apr-24 12:32N 22°08' E 114°24'1212.3
2016-Apr-24 11:33N 22°08' E 114°10'6 0.8
2016-Apr-24 04:13N 22°08' E 114°04'2 2.8
2016-Apr-24 03:30N 22°08' E 114°02'1010.7
2016-Apr-24 02:33N 22°06' E 113°51'9 8.9
2016-Apr-24 01:33N 22°14' E 113°48'2410.7
2016-Apr-23 23:18N 22°38' E 113°42'16 0.4
2016-Apr-22 08:31N 22°22' E 113°47'9 9.4
2016-Apr-22 07:33N 22°13' E 113°48'7 7.1
2016-Apr-22 06:31N 22°06' E 113°49'2 0.6
2016-Apr-22 02:33N 22°05' E 113°52'1 0.0
2016-Apr-21 14:26N 22°05' E 113°52'0 0.0
2016-Apr-21 12:26N 22°05' E 113°52'0 0.0
2016-Apr-21 11:26N 22°05' E 113°52'0 0.0
2016-Apr-21 09:20N 22°05' E 113°52'24110.4
2016-Apr-20 10:15N 23°38' E 117°53'2512.7
2016-Apr-20 08:19N 23°55' E 118°13'1113.1
2016-Apr-20 07:30N 24°02' E 118°22'2713.6
2016-Apr-20 05:30N 24°20' E 118°44'1313.6
2016-Apr-20 04:32N 24°29' E 118°55'1313.4
2016-Apr-20 03:33N 24°38' E 119°06'1313.3
2016-Apr-20 02:34N 24°46' E 119°17'  
2016-Apr-17 14:33N 33°41' E 129°53'1211.7
2016-Apr-17 13:33N 33°46' E 130°06'1111.1
2016-Apr-17 12:33N 33°52' E 130°17'  

Dump ship's entire track history